Flushing, New York
Current Conditions -  °F | °C
As of 1:51 AM on Monday 22 Dec 2014 (Local Time) from KLGA Reporting Station
Overcast Overcast  
Wind Chill: 32°   Ceiling: 1300
Heat Index: 36°   Visibility: 10mi
Dew Point: 30°   Wind: 5mph
Humidity: 79%   Direction: 30°NNE
Pressure: 30.32"   Gusts: NA
Location:  40.77°N, 73.82°W
Report Text: KLGA 220651Z 03004KT 10SM OVC013 02/M01 A3032 RMK AO2 SLP268 T00221011
Loading
Personal Weather Stations






























Interactive Weather Map New forecast layout! Learn more

10-Day Weather Forecast

Advertisements
Track Severe Weather on mobile